sensor_id;sensor_type;location;lat;lon;timestamp;pressure;altitude;pressure_sealevel;temperature;humidity
18900;BME280;9582;52.018;6.306;2023-04-07T00:01:21;101231.16;;;7.42;57.62
18900;BME280;9582;52.018;6.306;2023-04-07T00:03:49;101224.16;;;7.44;57.60
18900;BME280;9582;52.018;6.306;2023-04-07T00:06:15;101218.91;;;7.45;57.56
18900;BME280;9582;52.018;6.306;2023-04-07T00:08:42;101211.97;;;7.46;57.54
18900;BME280;9582;52.018;6.306;2023-04-07T00:11:08;101209.38;;;7.46;57.53
18900;BME280;9582;52.018;6.306;2023-04-07T00:13:35;101212.81;;;7.46;57.51
18900;BME280;9582;52.018;6.306;2023-04-07T00:16:02;101210.16;;;7.48;57.51
18900;BME280;9582;52.018;6.306;2023-04-07T00:18:28;101208.50;;;7.47;57.48
18900;BME280;9582;52.018;6.306;2023-04-07T00:20:56;101210.16;;;7.48;57.49
18900;BME280;9582;52.018;6.306;2023-04-07T00:23:23;101209.34;;;7.47;57.51
18900;BME280;9582;52.018;6.306;2023-04-07T00:25:49;101204.97;;;7.48;57.54
18900;BME280;9582;52.018;6.306;2023-04-07T00:28:16;101206.69;;;7.49;57.54
18900;BME280;9582;52.018;6.306;2023-04-07T00:30:42;101210.16;;;7.49;57.55
18900;BME280;9582;52.018;6.306;2023-04-07T00:33:09;101198.00;;;7.50;57.57
18900;BME280;9582;52.018;6.306;2023-04-07T00:35:35;101201.41;;;7.52;57.54
18900;BME280;9582;52.018;6.306;2023-04-07T00:38:03;101198.81;;;7.52;57.54
18900;BME280;9582;52.018;6.306;2023-04-07T00:40:30;101199.66;;;7.52;57.55
18900;BME280;9582;52.018;6.306;2023-04-07T00:42:56;101194.47;;;7.52;57.63
18900;BME280;9582;52.018;6.306;2023-04-07T00:45:23;101192.72;;;7.53;57.63
18900;BME280;9582;52.018;6.306;2023-04-07T00:47:49;101197.88;;;7.54;57.65
18900;BME280;9582;52.018;6.306;2023-04-07T00:50:17;101197.88;;;7.54;57.69
18900;BME280;9582;52.018;6.306;2023-04-07T00:52:44;101203.06;;;7.54;57.72
18900;BME280;9582;52.018;6.306;2023-04-07T00:55:12;101203.94;;;7.55;57.76
18900;BME280;9582;52.018;6.306;2023-04-07T00:57:39;101196.97;;;7.55;57.77
18900;BME280;9582;52.018;6.306;2023-04-07T01:00:06;101195.25;;;7.54;57.81
18900;BME280;9582;52.018;6.306;2023-04-07T01:02:37;101191.78;;;7.55;57.85
18900;BME280;9582;52.018;6.306;2023-04-07T01:05:10;101198.66;;;7.56;57.88
18900;BME280;9582;52.018;6.306;2023-04-07T01:07:45;101194.31;;;7.57;57.95
18900;BME280;9582;52.018;6.306;2023-04-07T01:10:20;101194.31;;;7.57;57.99
18900;BME280;9582;52.018;6.306;2023-04-07T01:13:01;101190.84;;;7.58;57.98
18900;BME280;9582;52.018;6.306;2023-04-07T01:15:33;101201.25;;;7.58;58.02
18900;BME280;9582;52.018;6.306;2023-04-07T01:18:07;101193.47;;;7.56;58.03
18900;BME280;9582;52.018;6.306;2023-04-07T01:20:35;101196.91;;;7.59;58.05
18900;BME280;9582;52.018;6.306;2023-04-07T01:23:05;101201.25;;;7.58;58.08
18900;BME280;9582;52.018;6.306;2023-04-07T01:25:52;101197.78;;;7.59;58.13
18900;BME280;9582;52.018;6.306;2023-04-07T01:28:38;101197.78;;;7.59;58.16
18900;BME280;9582;52.018;6.306;2023-04-07T01:31:09;101200.38;;;7.59;58.20
18900;BME280;9582;52.018;6.306;2023-04-07T01:33:38;101201.19;;;7.60;58.23
18900;BME280;9582;52.018;6.306;2023-04-07T01:36:09;101200.38;;;7.59;58.28
18900;BME280;9582;52.018;6.306;2023-04-07T01:38:37;101199.44;;;7.60;58.32
18900;BME280;9582;52.018;6.306;2023-04-07T01:41:05;101197.72;;;7.61;58.34
18900;BME280;9582;52.018;6.306;2023-04-07T01:43:32;101201.19;;;7.61;58.37
18900;BME280;9582;52.018;6.306;2023-04-07T01:45:59;101204.63;;;7.62;58.36
18900;BME280;9582;52.018;6.306;2023-04-07T01:48:28;101204.59;;;7.63;58.37
18900;BME280;9582;52.018;6.306;2023-04-07T01:50:55;101203.72;;;7.63;58.39
18900;BME280;9582;52.018;6.306;2023-04-07T01:53:22;101201.19;;;7.61;58.37
18900;BME280;9582;52.018;6.306;2023-04-07T01:55:50;101202.78;;;7.65;58.35
18900;BME280;9582;52.018;6.306;2023-04-07T01:58:17;101201.09;;;7.64;58.32
18900;BME280;9582;52.018;6.306;2023-04-07T02:00:45;101203.63;;;7.67;58.30
18900;BME280;9582;52.018;6.306;2023-04-07T02:03:19;101199.28;;;7.66;58.27
18900;BME280;9582;52.018;6.306;2023-04-07T02:05:54;101198.41;;;7.67;58.06
18900;BME280;9582;52.018;6.306;2023-04-07T02:08:26;101205.31;;;7.68;58.03
18900;BME280;9582;52.018;6.306;2023-04-07T02:10:56;101206.16;;;7.69;58.03
18900;BME280;9582;52.018;6.306;2023-04-07T02:13:31;101207.91;;;7.68;58.01
18900;BME280;9582;52.018;6.306;2023-04-07T02:16:00;101207.03;;;7.69;57.98
18900;BME280;9582;52.018;6.306;2023-04-07T02:18:27;101200.06;;;7.70;57.96
18900;BME280;9582;52.018;6.306;2023-04-07T02:20:57;101206.09;;;7.72;57.87
18900;BME280;9582;52.018;6.306;2023-04-07T02:23:24;101204.34;;;7.72;57.80
18900;BME280;9582;52.018;6.306;2023-04-07T02:25:54;101204.34;;;7.72;57.71
18900;BME280;9582;52.018;6.306;2023-04-07T02:28:21;101205.19;;;7.73;57.61
18900;BME280;9582;52.018;6.306;2023-04-07T02:30:47;101208.69;;;7.72;57.57
18900;BME280;9582;52.018;6.306;2023-04-07T02:33:14;101200.94;;;7.70;57.57
18900;BME280;9582;52.018;6.306;2023-04-07T02:35:41;101205.28;;;7.70;57.58
18900;BME280;9582;52.018;6.306;2023-04-07T02:38:09;101200.03;;;7.71;57.59
18900;BME280;9582;52.018;6.306;2023-04-07T02:40:36;101207.84;;;7.71;57.62
18900;BME280;9582;52.018;6.306;2023-04-07T02:43:02;101207.84;;;7.71;57.67
18900;BME280;9582;52.018;6.306;2023-04-07T02:45:29;101206.09;;;7.72;57.74
18900;BME280;9582;52.018;6.306;2023-04-07T02:47:56;101211.28;;;7.72;57.80
18900;BME280;9582;52.018;6.306;2023-04-07T02:50:22;101216.56;;;7.70;57.94
18900;BME280;9582;52.018;6.306;2023-04-07T02:52:50;101217.44;;;7.69;58.08
18900;BME280;9582;52.018;6.306;2023-04-07T02:55:18;101222.63;;;7.69;58.19
18900;BME280;9582;52.018;6.306;2023-04-07T02:57:45;101224.38;;;7.69;58.32
18900;BME280;9582;52.018;6.306;2023-04-07T03:00:24;101219.22;;;7.67;58.41
18900;BME280;9582;52.018;6.306;2023-04-07T03:03:06;101228.78;;;7.67;58.55
18900;BME280;9582;52.018;6.306;2023-04-07T03:05:36;101224.53;;;7.64;58.68
18900;BME280;9582;52.018;6.306;2023-04-07T03:08:04;101220.19;;;7.63;58.81
18900;BME280;9582;52.018;6.306;2023-04-07T03:10:31;101222.00;;;7.61;58.92
18900;BME280;9582;52.018;6.306;2023-04-07T03:12:58;101215.06;;;7.60;59.05
18900;BME280;9582;52.018;6.306;2023-04-07T03:15:25;101220.28;;;7.60;59.18
18900;BME280;9582;52.018;6.306;2023-04-07T03:17:52;101224.63;;;7.60;59.30
18900;BME280;9582;52.018;6.306;2023-04-07T03:20:19;101228.06;;;7.60;59.39
18900;BME280;9582;52.018;6.306;2023-04-07T03:22:46;101225.47;;;7.60;59.50
18900;BME280;9582;52.018;6.306;2023-04-07T03:25:19;101225.47;;;7.60;59.61
18900;BME280;9582;52.018;6.306;2023-04-07T03:27:48;101228.13;;;7.59;59.71
18900;BME280;9582;52.018;6.306;2023-04-07T03:30:15;101229.00;;;7.59;59.84
18900;BME280;9582;52.018;6.306;2023-04-07T03:32:44;101229.00;;;7.59;59.95
18900;BME280;9582;52.018;6.306;2023-04-07T03:35:10;101228.94;;;7.61;60.05
18900;BME280;9582;52.018;6.306;2023-04-07T03:37:37;101230.69;;;7.60;60.17
18900;BME280;9582;52.018;6.306;2023-04-07T03:40:08;101224.59;;;7.61;60.27
18900;BME280;9582;52.018;6.306;2023-04-07T03:42:35;101222.88;;;7.60;60.41
18900;BME280;9582;52.018;6.306;2023-04-07T03:45:07;101227.28;;;7.58;60.54
18900;BME280;9582;52.018;6.306;2023-04-07T03:47:36;101227.28;;;7.58;60.74
18900;BME280;9582;52.018;6.306;2023-04-07T03:50:05;101230.75;;;7.57;60.85
18900;BME280;9582;52.018;6.306;2023-04-07T03:52:38;101222.94;;;7.57;60.98
18900;BME280;9582;52.018;6.306;2023-04-07T03:55:13;101235.97;;;7.57;61.11
18900;BME280;9582;52.018;6.306;2023-04-07T03:57:40;101241.16;;;7.57;61.32
18900;BME280;9582;52.018;6.306;2023-04-07T04:00:10;101241.22;;;7.55;61.64
18900;BME280;9582;52.018;6.306;2023-04-07T04:02:49;101244.72;;;7.54;61.81
18900;BME280;9582;52.018;6.306;2023-04-07T04:05:18;101250.81;;;7.53;61.98
18900;BME280;9582;52.018;6.306;2023-04-07T04:07:45;101253.44;;;7.53;62.33
18900;BME280;9582;52.018;6.306;2023-04-07T04:10:12;101248.22;;;7.53;62.60
18900;BME280;9582;52.018;6.306;2023-04-07T04:12:42;101254.31;;;7.52;62.73
18900;BME280;9582;52.018;6.306;2023-04-07T04:15:13;101250.84;;;7.52;62.88
18900;BME280;9582;52.018;6.306;2023-04-07T04:17:39;101259.50;;;7.52;63.04
18900;BME280;9582;52.018;6.306;2023-04-07T04:20:08;101260.41;;;7.51;63.11
18900;BME280;9582;52.018;6.306;2023-04-07T04:22:44;101256.06;;;7.52;63.16
18900;BME280;9582;52.018;6.306;2023-04-07T04:25:11;101255.19;;;7.51;63.35
18900;BME280;9582;52.018;6.306;2023-04-07T04:27:40;101249.13;;;7.51;63.48
18900;BME280;9582;52.018;6.306;2023-04-07T04:30:16;101256.94;;;7.51;63.54
18900;BME280;9582;52.018;6.306;2023-04-07T04:32:49;101251.72;;;7.51;63.52
18900;BME280;9582;52.018;6.306;2023-04-07T04:35:21;101255.25;;;7.50;63.43
18900;BME280;9582;52.018;6.306;2023-04-07T04:38:04;101258.72;;;7.50;63.33
18900;BME280;9582;52.018;6.306;2023-04-07T04:40:32;101263.91;;;7.50;63.47
18900;BME280;9582;52.018;6.306;2023-04-07T04:42:59;101265.66;;;7.50;63.52
18900;BME280;9582;52.018;6.306;2023-04-07T04:45:27;101264.78;;;7.49;63.57
18900;BME280;9582;52.018;6.306;2023-04-07T04:47:54;101265.66;;;7.50;63.66
18900;BME280;9582;52.018;6.306;2023-04-07T04:50:20;101268.28;;;7.48;63.72
18900;BME280;9582;52.018;6.306;2023-04-07T04:52:48;101270.84;;;7.50;63.74
18900;BME280;9582;52.018;6.306;2023-04-07T04:55:18;101266.53;;;7.49;63.71
18900;BME280;9582;52.018;6.306;2023-04-07T04:57:46;101267.41;;;7.49;63.71
18900;BME280;9582;52.018;6.306;2023-04-07T05:00:19;101274.34;;;7.49;63.67
18900;BME280;9582;52.018;6.306;2023-04-07T05:02:49;101271.72;;;7.50;63.64
18900;BME280;9582;52.018;6.306;2023-04-07T05:05:16;101274.34;;;7.49;63.59
18900;BME280;9582;52.018;6.306;2023-04-07T05:07:42;101278.66;;;7.50;63.56
18900;BME280;9582;52.018;6.306;2023-04-07T05:10:12;101287.31;;;7.50;63.48
18900;BME280;9582;52.018;6.306;2023-04-07T05:12:45;101281.22;;;7.51;63.34
18900;BME280;9582;52.018;6.306;2023-04-07T05:15:11;101285.59;;;7.49;63.23
18900;BME280;9582;52.018;6.306;2023-04-07T05:17:39;101288.16;;;7.51;63.13
18900;BME280;9582;52.018;6.306;2023-04-07T05:20:11;101284.72;;;7.50;63.03
18900;BME280;9582;52.018;6.306;2023-04-07T05:22:39;101286.47;;;7.50;62.92
18900;BME280;9582;52.018;6.306;2023-04-07T05:25:10;101289.06;;;7.50;62.81
18900;BME280;9582;52.018;6.306;2023-04-07T05:27:38;101291.63;;;7.51;62.76
18900;BME280;9582;52.018;6.306;2023-04-07T05:30:11;101289.88;;;7.52;62.68
18900;BME280;9582;52.018;6.306;2023-04-07T05:32:38;101300.28;;;7.52;62.62
18900;BME280;9582;52.018;6.306;2023-04-07T05:35:14;101301.09;;;7.54;62.36
18900;BME280;9582;52.018;6.306;2023-04-07T05:37:47;101303.69;;;7.54;62.17
18900;BME280;9582;52.018;6.306;2023-04-07T05:40:15;101301.09;;;7.54;62.03
18900;BME280;9582;52.018;6.306;2023-04-07T05:42:42;101298.50;;;7.54;61.96
18900;BME280;9582;52.018;6.306;2023-04-07T05:45:10;101295.88;;;7.55;61.86
18900;BME280;9582;52.018;6.306;2023-04-07T05:47:39;101306.22;;;7.57;61.78
18900;BME280;9582;52.018;6.306;2023-04-07T05:50:09;101307.09;;;7.57;61.55
18900;BME280;9582;52.018;6.306;2023-04-07T05:52:38;101303.59;;;7.59;61.41
18900;BME280;9582;52.018;6.306;2023-04-07T05:55:16;101312.28;;;7.59;61.20
18900;BME280;9582;52.018;6.306;2023-04-07T05:57:43;101315.63;;;7.63;61.05
18900;BME280;9582;52.018;6.306;2023-04-07T06:00:12;101313.00;;;7.64;60.93
18900;BME280;9582;52.018;6.306;2023-04-07T06:02:46;101319.88;;;7.67;60.79
18900;BME280;9582;52.018;6.306;2023-04-07T06:05:17;101322.44;;;7.68;60.65
18900;BME280;9582;52.018;6.306;2023-04-07T06:07:46;101319.81;;;7.70;60.54
18900;BME280;9582;52.018;6.306;2023-04-07T06:10:13;101321.50;;;7.71;60.49
18900;BME280;9582;52.018;6.306;2023-04-07T06:12:40;101324.06;;;7.72;60.46
18900;BME280;9582;52.018;6.306;2023-04-07T06:15:07;101326.63;;;7.74;60.43
18900;BME280;9582;52.018;6.306;2023-04-07T06:17:34;101325.69;;;7.76;60.42
18900;BME280;9582;52.018;6.306;2023-04-07T06:20:00;101327.41;;;7.77;60.40
18900;BME280;9582;52.018;6.306;2023-04-07T06:22:26;101331.69;;;7.80;60.39
18900;BME280;9582;52.018;6.306;2023-04-07T06:24:54;101336.88;;;7.81;60.38
18900;BME280;9582;52.018;6.306;2023-04-07T06:27:21;101342.06;;;7.81;60.38
18900;BME280;9582;52.018;6.306;2023-04-07T06:29:49;101339.47;;;7.81;60.40
18900;BME280;9582;52.018;6.306;2023-04-07T06:32:15;101339.47;;;7.81;60.41
18900;BME280;9582;52.018;6.306;2023-04-07T06:34:42;101341.16;;;7.82;60.37
18900;BME280;9582;52.018;6.306;2023-04-07T06:37:08;101346.34;;;7.84;60.32
18900;BME280;9582;52.018;6.306;2023-04-07T06:39:35;101340.22;;;7.85;60.35
18900;BME280;9582;52.018;6.306;2023-04-07T06:42:03;101346.28;;;7.85;60.38
18900;BME280;9582;52.018;6.306;2023-04-07T06:44:35;101344.53;;;7.87;60.47
18900;BME280;9582;52.018;6.306;2023-04-07T06:47:02;101344.41;;;7.90;60.51
18900;BME280;9582;52.018;6.306;2023-04-07T06:49:29;101340.94;;;7.91;60.56
18900;BME280;9582;52.018;6.306;2023-04-07T06:51:55;101352.16;;;7.93;60.64
18900;BME280;9582;52.018;6.306;2023-04-07T06:54:22;101351.28;;;7.94;60.73
18900;BME280;9582;52.018;6.306;2023-04-07T06:56:48;101355.59;;;7.95;60.88
18900;BME280;9582;52.018;6.306;2023-04-07T06:59:16;101358.22;;;7.95;61.03
18900;BME280;9582;52.018;6.306;2023-04-07T07:01:43;101366.81;;;7.97;61.25
18900;BME280;9582;52.018;6.306;2023-04-07T07:04:10;101367.63;;;7.99;61.51
18900;BME280;9582;52.018;6.306;2023-04-07T07:06:37;101363.22;;;8.03;61.74
18900;BME280;9582;52.018;6.306;2023-04-07T07:09:03;101362.34;;;8.02;62.00
18900;BME280;9582;52.018;6.306;2023-04-07T07:11:29;101361.41;;;8.05;62.37
18900;BME280;9582;52.018;6.306;2023-04-07T07:13:56;101367.34;;;8.10;62.70
18900;BME280;9582;52.018;6.306;2023-04-07T07:16:24;101372.56;;;8.10;63.10
18900;BME280;9582;52.018;6.306;2023-04-07T07:18:50;101376.94;;;8.09;63.52
18900;BME280;9582;52.018;6.306;2023-04-07T07:21:17;101382.16;;;8.09;63.88
18900;BME280;9582;52.018;6.306;2023-04-07T07:23:44;101382.94;;;8.11;64.15
18900;BME280;9582;52.018;6.306;2023-04-07T07:26:10;101375.06;;;8.14;64.38
18900;BME280;9582;52.018;6.306;2023-04-07T07:28:37;101382.81;;;8.18;64.68
18900;BME280;9582;52.018;6.306;2023-04-07T07:31:08;101379.25;;;8.20;65.04
18900;BME280;9582;52.018;6.306;2023-04-07T07:33:36;101385.34;;;8.19;65.57
18900;BME280;9582;52.018;6.306;2023-04-07T07:36:05;101377.50;;;8.21;69.08
18900;BME280;9582;52.018;6.306;2023-04-07T07:38:31;101394.84;;;8.22;73.30
18900;BME280;9582;52.018;6.306;2023-04-07T07:40:58;101389.63;;;8.22;76.57
18900;BME280;9582;52.018;6.306;2023-04-07T07:43:24;101386.06;;;8.26;79.42
18900;BME280;9582;52.018;6.306;2023-04-07T07:45:51;101388.53;;;8.32;81.54
18900;BME280;9582;52.018;6.306;2023-04-07T07:48:17;101392.81;;;8.34;83.89
18900;BME280;9582;52.018;6.306;2023-04-07T07:50:45;101397.13;;;8.35;86.94
18900;BME280;9582;52.018;6.306;2023-04-07T07:53:12;101399.75;;;8.35;90.35
18900;BME280;9582;52.018;6.306;2023-04-07T07:55:39;101402.34;;;8.35;93.53
18900;BME280;9582;52.018;6.306;2023-04-07T07:58:06;101404.13;;;8.33;97.19
18900;BME280;9582;52.018;6.306;2023-04-07T08:00:32;101399.81;;;8.32;100.00
18900;BME280;9582;52.018;6.306;2023-04-07T08:02:59;101411.22;;;8.28;100.00
18900;BME280;9582;52.018;6.306;2023-04-07T08:05:26;101410.38;;;8.25;100.00
18900;BME280;9582;52.018;6.306;2023-04-07T08:07:54;101412.13;;;8.26;100.00
18900;BME280;9582;52.018;6.306;2023-04-07T08:10:20;101416.47;;;8.25;100.00
18900;BME280;9582;52.018;6.306;2023-04-07T08:12:49;101423.41;;;8.25;100.00
18900;BME280;9582;52.018;6.306;2023-04-07T08:15:16;101420.78;;;8.26;100.00
18900;BME280;9582;52.018;6.306;2023-04-07T08:17:42;101427.69;;;8.29;100.00
18900;BME280;9582;52.018;6.306;2023-04-07T08:20:09;101428.59;;;8.28;100.00
18900;BME280;9582;52.018;6.306;2023-04-07T08:22:36;101432.84;;;8.30;100.00
18900;BME280;9582;52.018;6.306;2023-04-07T08:25:05;101431.91;;;8.33;100.00
18900;BME280;9582;52.018;6.306;2023-04-07T08:27:31;101432.63;;;8.39;100.00
18900;BME280;9582;52.018;6.306;2023-04-07T08:29:59;101430.00;;;8.41;100.00
18900;BME280;9582;52.018;6.306;2023-04-07T08:32:33;101434.28;;;8.43;100.00
18900;BME280;9582;52.018;6.306;2023-04-07T08:34:59;101447.16;;;8.48;100.00
18900;BME280;9582;52.018;6.306;2023-04-07T08:37:26;101442.69;;;8.53;100.00
18900;BME280;9582;52.018;6.306;2023-04-07T08:39:52;101441.72;;;8.57;100.00
18900;BME280;9582;52.018;6.306;2023-04-07T08:42:21;101447.75;;;8.59;100.00
18900;BME280;9582;52.018;6.306;2023-04-07T08:44:49;101448.53;;;8.61;100.00
18900;BME280;9582;52.018;6.306;2023-04-07T08:47:17;101452.88;;;8.62;100.00
18900;BME280;9582;52.018;6.306;2023-04-07T08:49:45;101448.53;;;8.61;100.00
18900;BME280;9582;52.018;6.306;2023-04-07T08:52:14;101461.50;;;8.64;100.00
18900;BME280;9582;52.018;6.306;2023-04-07T08:54:42;101457.94;;;8.68;100.00
18900;BME280;9582;52.018;6.306;2023-04-07T08:57:08;101462.19;;;8.72;100.00
18900;BME280;9582;52.018;6.306;2023-04-07T08:59:37;101464.66;;;8.77;100.00
18900;BME280;9582;52.018;6.306;2023-04-07T09:02:07;101463.72;;;8.79;100.00
18900;BME280;9582;52.018;6.306;2023-04-07T09:04:34;101472.25;;;8.84;100.00
18900;BME280;9582;52.018;6.306;2023-04-07T09:07:01;101469.66;;;8.84;100.00
18900;BME280;9582;52.018;6.306;2023-04-07T09:09:28;101468.78;;;8.84;100.00
18900;BME280;9582;52.018;6.306;2023-04-07T09:11:54;101465.28;;;8.85;100.00
18900;BME280;9582;52.018;6.306;2023-04-07T09:14:21;101468.75;;;8.85;100.00
18900;BME280;9582;52.018;6.306;2023-04-07T09:16:49;101471.41;;;8.84;100.00
18900;BME280;9582;52.018;6.306;2023-04-07T09:19:15;101474.84;;;8.86;100.00
18900;BME280;9582;52.018;6.306;2023-04-07T09:21:48;101480.84;;;8.88;100.00
18900;BME280;9582;52.018;6.306;2023-04-07T09:24:23;101479.13;;;8.88;100.00
18900;BME280;9582;52.018;6.306;2023-04-07T09:27:07;101484.50;;;8.82;100.00
18900;BME280;9582;52.018;6.306;2023-04-07T09:29:34;101486.13;;;8.86;100.00
18900;BME280;9582;52.018;6.306;2023-04-07T09:32:02;101487.81;;;8.87;100.00
18900;BME280;9582;52.018;6.306;2023-04-07T09:34:30;101486.94;;;8.88;100.00
18900;BME280;9582;52.018;6.306;2023-04-07T09:36:57;101486.22;;;8.83;100.00
18900;BME280;9582;52.018;6.306;2023-04-07T09:39:24;101485.19;;;8.89;100.00
18900;BME280;9582;52.018;6.306;2023-04-07T09:41:51;101485.13;;;8.90;100.00
18900;BME280;9582;52.018;6.306;2023-04-07T09:44:18;101488.47;;;8.95;100.00
18900;BME280;9582;52.018;6.306;2023-04-07T09:46:48;101488.34;;;9.00;100.00
18900;BME280;9582;52.018;6.306;2023-04-07T09:49:16;101489.81;;;9.10;100.00
18900;BME280;9582;52.018;6.306;2023-04-07T09:51:54;101481.94;;;9.11;100.00
18900;BME280;9582;52.018;6.306;2023-04-07T09:54:31;101492.16;;;9.19;100.00
18900;BME280;9582;52.018;6.306;2023-04-07T09:56:59;101496.38;;;9.23;100.00
18900;BME280;9582;52.018;6.306;2023-04-07T09:59:26;101493.75;;;9.24;100.00
18900;BME280;9582;52.018;6.306;2023-04-07T10:01:53;101497.25;;;9.23;100.00
18900;BME280;9582;52.018;6.306;2023-04-07T10:04:22;101497.06;;;9.29;100.00
18900;BME280;9582;52.018;6.306;2023-04-07T10:06:49;101497.84;;;9.33;100.00
18900;BME280;9582;52.018;6.306;2023-04-07T10:09:16;101498.69;;;9.34;100.00
18900;BME280;9582;52.018;6.306;2023-04-07T10:11:43;101501.16;;;9.38;100.00
18900;BME280;9582;52.018;6.306;2023-04-07T10:14:10;101498.53;;;9.40;100.00
18900;BME280;9582;52.018;6.306;2023-04-07T10:16:37;101498.22;;;9.49;100.00
18900;BME280;9582;52.018;6.306;2023-04-07T10:19:04;101502.34;;;9.57;100.00
18900;BME280;9582;52.018;6.306;2023-04-07T10:21:34;101504.75;;;9.65;100.00
18900;BME280;9582;52.018;6.306;2023-04-07T10:24:10;101513.47;;;9.64;100.00
18900;BME280;9582;52.018;6.306;2023-04-07T10:26:46;101509.81;;;9.69;100.00
18900;BME280;9582;52.018;6.306;2023-04-07T10:29:16;101507.28;;;9.66;100.00
18900;BME280;9582;52.018;6.306;2023-04-07T10:31:44;101521.34;;;9.62;100.00
18900;BME280;9582;52.018;6.306;2023-04-07T10:34:11;101533.63;;;9.59;100.00
18900;BME280;9582;52.018;6.306;2023-04-07T10:37:08;101525.97;;;9.53;100.00
18900;BME280;9582;52.018;6.306;2023-04-07T10:39:37;101526.22;;;9.44;100.00
18900;BME280;9582;52.018;6.306;2023-04-07T10:42:04;101524.63;;;9.40;100.00
18900;BME280;9582;52.018;6.306;2023-04-07T10:44:44;101531.72;;;9.35;100.00
18900;BME280;9582;52.018;6.306;2023-04-07T10:47:12;101539.53;;;9.35;100.00
18900;BME280;9582;52.018;6.306;2023-04-07T10:49:38;101537.88;;;9.32;100.00
18900;BME280;9582;52.018;6.306;2023-04-07T10:52:24;101538.03;;;9.26;100.00
18900;BME280;9582;52.018;6.306;2023-04-07T10:55:27;101544.28;;;9.20;100.00
18900;BME280;9582;52.018;6.306;2023-04-07T10:58:13;101544.22;;;9.23;100.00
18900;BME280;9582;52.018;6.306;2023-04-07T11:00:40;101543.06;;;9.34;100.00
18900;BME280;9582;52.018;6.306;2023-04-07T11:03:10;101548.00;;;9.43;100.00
18900;BME280;9582;52.018;6.306;2023-04-07T11:05:38;101544.28;;;9.51;100.00
18900;BME280;9582;52.018;6.306;2023-04-07T11:08:06;101541.38;;;9.62;100.00
18900;BME280;9582;52.018;6.306;2023-04-07T11:10:33;101550.47;;;9.78;100.00
18900;BME280;9582;52.018;6.306;2023-04-07T11:13:04;101550.19;;;9.87;100.00
18900;BME280;9582;52.018;6.306;2023-04-07T11:15:32;101547.50;;;9.90;100.00
18900;BME280;9582;52.018;6.306;2023-04-07T11:18:09;101551.63;;;9.97;100.00
18900;BME280;9582;52.018;6.306;2023-04-07T11:20:43;101548.53;;;10.12;100.00
18900;BME280;9582;52.018;6.306;2023-04-07T11:23:11;101551.88;;;10.19;100.00
18900;BME280;9582;52.018;6.306;2023-04-07T11:25:41;101559.44;;;10.26;100.00
18900;BME280;9582;52.018;6.306;2023-04-07T11:28:08;101557.53;;;10.31;100.00
18900;BME280;9582;52.018;6.306;2023-04-07T11:30:35;101558.41;;;10.32;100.00
18900;BME280;9582;52.018;6.306;2023-04-07T11:33:03;101562.72;;;10.33;100.00
18900;BME280;9582;52.018;6.306;2023-04-07T11:35:29;101561.34;;;10.21;100.00
18900;BME280;9582;52.018;6.306;2023-04-07T11:37:57;101566.78;;;10.15;100.00
18900;BME280;9582;52.018;6.306;2023-04-07T11:40:32;101564.41;;;10.06;100.00
18900;BME280;9582;52.018;6.306;2023-04-07T11:42:59;101565.97;;;10.12;100.00
18900;BME280;9582;52.018;6.306;2023-04-07T11:45:26;101571.34;;;10.07;100.00
18900;BME280;9582;52.018;6.306;2023-04-07T11:47:53;101572.44;;;10.00;100.00
18900;BME280;9582;52.018;6.306;2023-04-07T11:50:38;101573.72;;;9.87;100.00
18900;BME280;9582;52.018;6.306;2023-04-07T11:53:04;101574.69;;;9.83;100.00
18900;BME280;9582;52.018;6.306;2023-04-07T11:55:32;101579.09;;;9.81;100.00
18900;BME280;9582;52.018;6.306;2023-04-07T11:58:04;101580.84;;;9.80;100.00
18900;BME280;9582;52.018;6.306;2023-04-07T12:00:31;101585.22;;;9.80;100.00
18900;BME280;9582;52.018;6.306;2023-04-07T12:03:08;101585.47;;;9.72;100.00
18900;BME280;9582;52.018;6.306;2023-04-07T12:05:41;101587.53;;;9.61;100.00
18900;BME280;9582;52.018;6.306;2023-04-07T12:08:07;101587.81;;;9.51;100.00
18900;BME280;9582;52.018;6.306;2023-04-07T12:10:35;101595.47;;;9.57;100.00
18900;BME280;9582;52.018;6.306;2023-04-07T12:13:05;101597.06;;;9.62;100.00
18900;BME280;9582;52.018;6.306;2023-04-07T12:15:32;101599.28;;;9.76;100.00
18900;BME280;9582;52.018;6.306;2023-04-07T12:17:59;101597.94;;;9.92;100.00
18900;BME280;9582;52.018;6.306;2023-04-07T12:20:27;101599.19;;;10.08;100.00
18900;BME280;9582;52.018;6.306;2023-04-07T12:22:54;101598.69;;;10.25;100.00
18900;BME280;9582;52.018;6.306;2023-04-07T12:25:20;101604.50;;;10.34;100.00
18900;BME280;9582;52.018;6.306;2023-04-07T12:27:48;101606.13;;;10.38;100.00
18900;BME280;9582;52.018;6.306;2023-04-07T12:30:15;101609.38;;;10.45;100.00
18900;BME280;9582;52.018;6.306;2023-04-07T12:32:41;101615.38;;;10.49;100.00
18900;BME280;9582;52.018;6.306;2023-04-07T12:35:08;101615.75;;;10.36;100.00
18900;BME280;9582;52.018;6.306;2023-04-07T12:37:36;101620.72;;;10.16;100.00
18900;BME280;9582;52.018;6.306;2023-04-07T12:40:03;101624.31;;;10.12;100.00
18900;BME280;9582;52.018;6.306;2023-04-07T12:42:30;101623.78;;;10.01;100.00
18900;BME280;9582;52.018;6.306;2023-04-07T12:44:58;101640.84;;;9.83;100.00
18900;BME280;9582;52.018;6.306;2023-04-07T12:47:24;101635.16;;;9.69;100.00
18900;BME280;9582;52.018;6.306;2023-04-07T12:49:51;101642.47;;;9.57;100.00
18900;BME280;9582;52.018;6.306;2023-04-07T12:52:17;101638.25;;;9.53;100.00
18900;BME280;9582;52.018;6.306;2023-04-07T12:54:44;101643.63;;;9.47;100.00
18900;BME280;9582;52.018;6.306;2023-04-07T12:57:10;101639.25;;;9.47;100.00
18900;BME280;9582;52.018;6.306;2023-04-07T12:59:37;101640.06;;;9.49;100.00
18900;BME280;9582;52.018;6.306;2023-04-07T13:02:05;101646.16;;;9.50;100.00
18900;BME280;9582;52.018;6.306;2023-04-07T13:04:32;101656.59;;;9.50;100.00
18900;BME280;9582;52.018;6.306;2023-04-07T13:06:59;101653.44;;;9.37;100.00
18900;BME280;9582;52.018;6.306;2023-04-07T13:09:27;101659.19;;;9.17;100.00
18900;BME280;9582;52.018;6.306;2023-04-07T13:11:53;101659.66;;;8.99;100.00
18900;BME280;9582;52.018;6.306;2023-04-07T13:14:22;101658.16;;;8.89;100.00